createdAt,value
2019-05-21T00:01:47.341Z,99526.16
2019-05-21T00:04:28.026Z,99525.58
2019-05-21T00:06:52.012Z,99523.41
2019-05-21T00:09:23.309Z,99534.83
2019-05-21T00:11:54.593Z,99521.72
2019-05-21T00:14:25.965Z,99523.50
2019-05-21T00:16:57.302Z,99529.70
2019-05-21T00:19:28.612Z,99519.94
2019-05-21T00:21:59.911Z,99531.03
2019-05-21T00:24:31.321Z,99535.53
2019-05-21T00:27:02.655Z,99518.58
2019-05-21T00:30:28.476Z,99513.77
2019-05-21T00:33:54.718Z,99513.73
2019-05-21T00:37:21.804Z,99512.41
2019-05-21T00:40:48.169Z,99514.03
2019-05-21T00:43:39.313Z,99515.00
2019-05-21T00:46:10.862Z,99511.20
2019-05-21T00:48:42.220Z,99515.52
2019-05-21T00:51:13.567Z,99511.08
2019-05-21T00:53:44.978Z,99517.70
2019-05-21T00:56:16.325Z,99516.43
2019-05-21T00:58:47.675Z,99508.52
2019-05-21T01:01:19.183Z,99518.25
2019-05-21T01:03:50.498Z,99509.72
2019-05-21T01:06:21.786Z,99507.55
2019-05-21T01:08:53.130Z,99511.08
2019-05-21T01:11:24.491Z,99511.56
2019-05-21T01:13:55.860Z,99512.60
2019-05-21T01:16:27.368Z,99519.19
2019-05-21T01:18:58.642Z,99511.20
2019-05-21T01:21:30.081Z,99515.23
2019-05-21T01:24:01.373Z,99522.81
2019-05-21T01:26:32.765Z,99509.58
2019-05-21T01:29:04.652Z,99525.51
2019-05-21T01:31:35.956Z,99521.03
2019-05-21T01:34:07.327Z,99524.24
2019-05-21T01:36:38.694Z,99519.86
2019-05-21T01:39:10.448Z,99516.69
2019-05-21T01:41:41.749Z,99523.88
2019-05-21T01:44:13.110Z,99524.37
2019-05-21T01:46:44.403Z,99522.48
2019-05-21T01:49:15.692Z,99524.24
2019-05-21T01:51:46.998Z,99523.00
2019-05-21T01:54:18.296Z,99519.47
2019-05-21T01:56:49.564Z,99522.67
2019-05-21T01:59:20.884Z,99533.61
2019-05-21T02:01:52.184Z,99529.30
2019-05-21T02:04:23.572Z,99525.42
2019-05-21T02:06:54.920Z,99524.45
2019-05-21T02:09:26.303Z,99537.05
2019-05-21T02:11:57.595Z,99537.45
2019-05-21T02:14:28.922Z,99523.73
2019-05-21T02:17:00.324Z,99525.94
2019-05-21T02:19:31.722Z,99530.71
2019-05-21T02:22:03.037Z,99534.70
2019-05-21T02:24:35.285Z,99524.64
2019-05-21T02:27:06.657Z,99530.56
2019-05-21T02:29:46.865Z,99523.45
2019-05-21T02:32:18.222Z,99541.55
2019-05-21T02:34:49.548Z,99530.74
2019-05-21T02:37:20.885Z,99537.02
2019-05-21T02:39:52.187Z,99528.59
2019-05-21T02:42:24.706Z,99534.06
2019-05-21T02:44:56.139Z,99523.67
2019-05-21T02:47:27.477Z,99520.66
2019-05-21T02:49:58.830Z,99529.02
2019-05-21T02:52:30.117Z,99525.12
2019-05-21T02:55:01.905Z,99530.47
2019-05-21T02:57:42.534Z,99529.08
2019-05-21T03:00:25.212Z,99523.45
2019-05-21T03:02:57.230Z,99517.30
2019-05-21T03:05:28.627Z,99518.96
2019-05-21T03:08:00.169Z,99517.36
2019-05-21T03:10:31.497Z,99523.94
2019-05-21T03:13:02.904Z,99529.29
2019-05-21T03:15:35.244Z,99529.34
2019-05-21T03:18:11.091Z,99533.36
2019-05-21T03:20:46.199Z,99539.10
2019-05-21T03:23:23.845Z,99539.98
2019-05-21T03:25:55.381Z,99548.01
2019-05-21T03:28:26.677Z,99550.30
2019-05-21T03:30:58.013Z,99544.16
2019-05-21T03:33:29.414Z,99548.09
2019-05-21T03:36:01.041Z,99545.09
2019-05-21T03:38:32.333Z,99557.92
2019-05-21T03:41:03.642Z,99559.66
2019-05-21T03:43:35.000Z,99554.70
2019-05-21T03:46:06.626Z,99563.98
2019-05-21T03:48:38.126Z,99553.41
2019-05-21T03:51:09.543Z,99561.80
2019-05-21T03:53:40.841Z,99557.95
2019-05-21T03:56:18.465Z,99549.98
2019-05-21T03:58:51.599Z,99564.13
2019-05-21T04:01:22.864Z,99561.91
2019-05-21T04:03:54.354Z,99569.72
2019-05-21T04:06:28.879Z,99565.00
2019-05-21T04:08:58.769Z,99559.52
2019-05-21T04:11:30.041Z,99562.66
2019-05-21T04:14:01.403Z,99563.45
2019-05-21T04:16:34.381Z,99578.14
2019-05-21T04:19:07.409Z,99569.19
2019-05-21T04:21:38.787Z,99570.94
2019-05-21T04:24:10.186Z,99569.09
2019-05-21T04:26:41.988Z,99576.98
2019-05-21T04:29:13.351Z,99579.34
2019-05-21T04:31:44.728Z,99586.44
2019-05-21T04:34:16.046Z,99589.66
2019-05-21T04:36:47.317Z,99584.45
2019-05-21T04:39:18.851Z,99586.70
2019-05-21T04:41:50.165Z,99588.11
2019-05-21T04:44:21.483Z,99590.08
2019-05-21T04:46:52.852Z,99584.02
2019-05-21T04:49:24.131Z,99578.30
2019-05-21T04:51:55.521Z,99565.80
2019-05-21T04:54:26.783Z,99564.10
2019-05-21T04:56:58.083Z,99554.86
2019-05-21T04:59:29.448Z,99557.06
2019-05-21T05:02:01.833Z,99548.80
2019-05-21T05:04:33.305Z,99541.88
2019-05-21T05:07:04.782Z,99536.58
2019-05-21T05:09:36.063Z,99534.41
2019-05-21T05:12:07.400Z,99519.81
2019-05-21T05:14:38.852Z,99513.25
2019-05-21T05:17:10.149Z,99507.89
2019-05-21T05:19:42.603Z,99502.70
2019-05-21T05:22:13.999Z,99503.65
2019-05-21T05:24:45.285Z,99499.63
2019-05-21T05:27:16.687Z,99505.35
2019-05-21T05:29:48.054Z,99502.63
2019-05-21T05:32:19.414Z,99517.27
2019-05-21T05:34:50.911Z,99532.34
2019-05-21T05:37:22.295Z,99523.97
2019-05-21T05:39:54.756Z,99530.61
2019-05-21T05:42:26.152Z,99545.52
2019-05-21T05:44:57.654Z,99544.19
2019-05-21T05:47:28.960Z,99556.95
2019-05-21T05:50:04.657Z,99565.81
2019-05-21T05:52:36.068Z,99559.61
2019-05-21T05:55:08.920Z,99553.69
2019-05-21T05:57:40.489Z,99553.30
2019-05-21T06:00:13.722Z,99548.45
2019-05-21T06:02:45.268Z,99552.86
2019-05-21T06:05:16.932Z,99559.49
2019-05-21T06:07:59.249Z,99562.98
2019-05-21T06:10:21.625Z,99573.57
2019-05-21T06:12:53.081Z,99587.77
2019-05-21T06:15:24.646Z,99574.88
2019-05-21T06:17:55.937Z,99582.80
2019-05-21T06:20:27.454Z,99576.23
2019-05-21T06:22:58.945Z,99591.80
2019-05-21T06:25:30.993Z,99590.83
2019-05-21T06:28:02.335Z,99593.05
2019-05-21T06:30:33.775Z,99584.16
2019-05-21T06:33:05.216Z,99585.09
2019-05-21T06:35:36.619Z,99588.27
2019-05-21T06:38:17.088Z,99595.37
2019-05-21T06:40:41.118Z,99593.14
2019-05-21T06:43:13.623Z,99602.41
2019-05-21T06:45:45.669Z,99611.63
2019-05-21T06:48:17.187Z,99615.14
2019-05-21T06:50:48.632Z,99610.31
2019-05-21T06:53:20.208Z,99615.61
2019-05-21T06:55:51.653Z,99611.98
2019-05-21T06:58:23.143Z,99613.72
2019-05-21T07:00:55.840Z,99624.81
2019-05-21T07:03:27.239Z,99617.36
2019-05-21T07:05:59.640Z,99618.63
2019-05-21T07:08:34.701Z,99623.44
2019-05-21T07:11:04.375Z,99618.67
2019-05-21T07:13:35.804Z,99631.02
2019-05-21T07:16:07.271Z,99631.38
2019-05-21T07:18:41.418Z,99629.59
2019-05-21T07:21:11.997Z,99632.21
2019-05-21T07:23:43.436Z,99628.25
2019-05-21T07:26:14.882Z,99634.84
2019-05-21T07:28:46.537Z,99627.70
2019-05-21T07:31:17.868Z,99628.98
2019-05-21T07:33:49.476Z,99645.88
2019-05-21T07:36:20.851Z,99651.88
2019-05-21T07:38:54.148Z,99642.25
2019-05-21T07:41:25.338Z,99633.52
2019-05-21T07:43:56.917Z,99644.05
2019-05-21T07:46:28.593Z,99645.35
2019-05-21T07:49:00.147Z,99651.11
2019-05-21T07:51:31.705Z,99663.89
2019-05-21T07:54:03.149Z,99639.83
2019-05-21T07:56:34.582Z,99649.48
2019-05-21T07:59:06.663Z,99647.12
2019-05-21T08:01:38.158Z,99643.06
2019-05-21T08:04:09.590Z,99634.09
2019-05-21T08:06:41.156Z,99647.34
2019-05-21T08:09:14.699Z,99657.61
2019-05-21T08:11:47.079Z,99665.80
2019-05-21T08:14:19.945Z,99662.34
2019-05-21T08:16:51.615Z,99662.27
2019-05-21T08:19:23.297Z,99659.67
2019-05-21T08:21:54.941Z,99657.87
2019-05-21T08:24:26.407Z,99657.33
2019-05-21T08:26:57.784Z,99659.20
2019-05-21T08:29:29.189Z,99661.84
2019-05-21T08:32:00.641Z,99658.73
2019-05-21T08:34:32.011Z,99661.45
2019-05-21T08:37:03.364Z,99660.05
2019-05-21T08:39:34.689Z,99674.36
2019-05-21T08:42:06.171Z,99668.59
2019-05-21T08:44:37.526Z,99669.97
2019-05-21T08:47:08.983Z,99678.39
2019-05-21T08:49:44.077Z,99683.30
2019-05-21T08:52:13.654Z,99664.70
2019-05-21T08:54:49.495Z,99669.02
2019-05-21T08:57:21.221Z,99680.98
2019-05-21T08:59:52.774Z,99682.71
2019-05-21T09:02:25.515Z,99671.02
2019-05-21T09:04:57.033Z,99697.47
2019-05-21T09:07:28.654Z,99694.17
2019-05-21T09:10:00.275Z,99710.17
2019-05-21T09:12:32.030Z,99730.01
2019-05-21T09:15:07.413Z,99730.86
2019-05-21T09:17:38.912Z,99707.02
2019-05-21T09:20:11.623Z,99717.70
2019-05-21T09:22:43.270Z,99713.34
2019-05-21T09:25:14.897Z,99734.95
2019-05-21T09:27:46.503Z,99742.08
2019-05-21T09:30:18.407Z,99750.25
2019-05-21T09:32:49.961Z,99754.17
2019-05-21T09:35:21.602Z,99741.76
2019-05-21T09:37:53.056Z,99757.23
2019-05-21T09:40:25.514Z,99761.60
2019-05-21T09:42:56.946Z,99767.27
2019-05-21T09:45:28.461Z,99768.17
2019-05-21T09:47:59.986Z,99774.46
2019-05-21T09:50:31.486Z,99778.47
2019-05-21T09:53:02.921Z,99788.31
2019-05-21T09:55:34.275Z,99791.07
2019-05-21T09:58:10.516Z,99789.44
2019-05-21T10:00:59.728Z,99792.55
2019-05-21T10:03:33.500Z,99795.66
2019-05-21T10:06:04.916Z,99794.87
2019-05-21T10:08:37.886Z,99794.85
2019-05-21T10:11:09.376Z,99813.48
2019-05-21T10:13:40.712Z,99809.00
2019-05-21T10:16:12.051Z,99813.41
2019-05-21T10:18:43.491Z,99833.70
2019-05-21T10:21:14.852Z,99823.98
2019-05-21T10:23:46.152Z,99825.77
2019-05-21T10:26:17.719Z,99824.41
2019-05-21T10:28:49.227Z,99831.45
2019-05-21T10:31:20.702Z,99817.72
2019-05-21T10:33:52.201Z,99822.62
2019-05-21T10:36:23.915Z,99830.55
2019-05-21T10:38:56.411Z,99830.69
2019-05-21T10:41:27.961Z,99820.84
2019-05-21T10:43:59.534Z,99821.78
2019-05-21T10:46:32.162Z,99819.98
2019-05-21T10:49:03.834Z,99829.66
2019-05-21T10:51:35.542Z,99823.89
2019-05-21T10:54:07.856Z,99835.73
2019-05-21T10:56:48.061Z,99841.45
2019-05-21T10:59:14.349Z,99847.16
2019-05-21T11:01:50.453Z,99839.61
2019-05-21T11:04:26.852Z,99849.30
2019-05-21T11:06:58.801Z,99847.09
2019-05-21T11:09:30.638Z,99864.37
2019-05-21T11:12:02.202Z,99855.50
2019-05-21T11:14:33.771Z,99848.09
2019-05-21T11:17:06.979Z,99860.91
2019-05-21T11:19:38.407Z,99862.19
2019-05-21T11:22:09.920Z,99859.08
2019-05-21T11:24:41.352Z,99870.56
2019-05-21T11:27:12.809Z,99865.73
2019-05-21T11:29:44.167Z,99868.55
2019-05-21T11:32:15.856Z,99880.86
2019-05-21T11:34:49.990Z,99869.38
2019-05-21T11:37:20.388Z,99879.52
2019-05-21T11:39:51.869Z,99889.25
2019-05-21T11:42:23.435Z,99896.81
2019-05-21T11:44:55.105Z,99886.64
2019-05-21T11:47:26.475Z,99883.56
2019-05-21T11:49:58.001Z,99888.50
2019-05-21T11:52:32.006Z,99888.09
2019-05-21T11:55:03.588Z,99888.48
2019-05-21T11:57:35.153Z,99895.58
2019-05-21T12:00:09.764Z,99903.99
2019-05-21T12:02:41.378Z,99903.47
2019-05-21T12:05:13.040Z,99903.48
2019-05-21T12:07:44.373Z,99912.45
2019-05-21T12:10:17.454Z,99914.67
2019-05-21T12:12:56.476Z,99924.39
2019-05-21T12:15:28.072Z,99927.11
2019-05-21T12:17:59.683Z,99927.48
2019-05-21T12:20:36.627Z,99932.32
2019-05-21T12:23:05.584Z,99933.67
2019-05-21T12:25:42.771Z,99939.84
2019-05-21T12:28:14.387Z,99954.05
2019-05-21T12:30:45.755Z,99952.69
2019-05-21T12:33:21.722Z,99963.74
2019-05-21T12:36:00.753Z,99964.72
2019-05-21T12:38:37.693Z,99967.81
2019-05-21T12:41:18.263Z,99974.88
2019-05-21T12:43:49.661Z,99979.30
2019-05-21T12:46:24.032Z,99990.36
2019-05-21T12:48:58.204Z,99985.13
2019-05-21T12:51:38.083Z,99980.27
2019-05-21T12:54:09.662Z,99987.30
2019-05-21T12:56:41.410Z,99990.83
2019-05-21T12:59:13.986Z,99995.31
2019-05-21T13:01:50.873Z,100000.56
2019-05-21T13:04:23.047Z,99994.80
2019-05-21T13:06:54.575Z,100001.88
2019-05-21T13:09:32.802Z,100000.56
2019-05-21T13:12:11.119Z,100006.34
2019-05-21T13:14:42.526Z,100012.50
2019-05-21T13:17:13.932Z,100018.30
2019-05-21T13:19:45.871Z,100023.16
2019-05-21T13:22:17.374Z,100026.28
2019-05-21T13:24:49.180Z,100034.76
2019-05-21T13:27:29.217Z,100038.27
2019-05-21T13:30:04.207Z,100038.27
2019-05-21T13:32:39.161Z,100047.50
2019-05-21T13:35:11.628Z,100055.02
2019-05-21T13:37:45.697Z,100050.61
2019-05-21T13:40:19.611Z,100056.78
2019-05-21T13:42:52.135Z,100057.20
2019-05-21T13:45:25.523Z,100061.15
2019-05-21T13:47:57.744Z,100059.78
2019-05-21T13:50:29.361Z,100061.98
2019-05-21T13:53:15.630Z,100073.05
2019-05-21T13:55:47.216Z,100076.16
2019-05-21T13:58:18.773Z,100074.83
2019-05-21T14:00:56.043Z,100079.26
2019-05-21T14:03:27.730Z,100082.36
2019-05-21T14:05:59.314Z,100080.60
2019-05-21T14:08:31.165Z,100083.77
2019-05-21T14:11:02.751Z,100084.67
2019-05-21T14:13:34.249Z,100081.56
2019-05-21T14:16:06.742Z,100073.59
2019-05-21T14:18:38.050Z,100082.88
2019-05-21T14:21:28.168Z,100082.88
2019-05-21T14:23:59.784Z,100077.96
2019-05-21T14:26:31.449Z,100078.95
2019-05-21T14:29:03.264Z,100083.34
2019-05-21T14:31:34.806Z,100082.86
2019-05-21T14:34:06.429Z,100089.54
2019-05-21T14:36:37.953Z,100085.98
2019-05-21T14:39:14.216Z,100086.37
2019-05-21T14:41:45.676Z,100092.98
2019-05-21T14:44:17.153Z,100091.70
2019-05-21T14:46:49.599Z,100099.25
2019-05-21T14:49:20.942Z,100102.77
2019-05-21T14:51:52.437Z,100107.64
2019-05-21T14:54:33.602Z,100116.42
2019-05-21T14:57:07.096Z,100116.51
2019-05-21T14:59:57.369Z,100119.16
2019-05-21T15:02:28.854Z,100127.94
2019-05-21T15:05:00.376Z,100116.42
2019-05-21T15:07:33.361Z,100120.40
2019-05-21T15:10:05.885Z,100133.73
2019-05-21T15:12:37.526Z,100131.95
2019-05-21T15:15:09.511Z,100142.16
2019-05-21T15:17:41.057Z,100145.27
2019-05-21T15:20:15.804Z,100147.45
2019-05-21T15:22:47.440Z,100143.91
2019-05-21T15:25:19.154Z,100149.70
2019-05-21T15:27:50.806Z,100149.72
2019-05-21T15:30:23.537Z,100147.09
2019-05-21T15:32:55.133Z,100152.39
2019-05-21T15:35:27.142Z,100153.27
2019-05-21T15:37:59.081Z,100157.72
2019-05-21T15:40:30.492Z,100163.94
2019-05-21T15:43:01.955Z,100165.70
2019-05-21T15:45:33.463Z,100169.68
2019-05-21T15:48:06.059Z,100174.53
2019-05-21T15:50:37.477Z,100170.52
2019-05-21T15:53:09.018Z,100170.09
2019-05-21T15:55:40.392Z,100174.53
2019-05-21T15:58:11.744Z,100174.97
2019-05-21T16:00:43.506Z,100178.03
2019-05-21T16:03:15.081Z,100185.59
2019-05-21T16:05:51.210Z,100184.72
2019-05-21T16:08:23.662Z,100180.33
2019-05-21T16:11:28.230Z,100177.66
2019-05-21T16:13:47.258Z,100174.59
2019-05-21T16:16:23.747Z,100186.08
2019-05-21T16:18:55.255Z,100175.89
2019-05-21T16:21:26.606Z,100184.80
2019-05-21T16:23:57.974Z,100189.23
2019-05-21T16:26:30.197Z,100187.47
2019-05-21T16:29:04.681Z,100194.56
2019-05-21T16:31:36.208Z,100198.11
2019-05-21T16:34:07.640Z,100191.91
2019-05-21T16:36:39.009Z,100201.25
2019-05-21T16:39:10.853Z,100199.03
2019-05-21T16:41:45.134Z,100203.02
2019-05-21T16:44:15.493Z,100203.94
2019-05-21T16:46:47.029Z,100216.78
2019-05-21T16:49:18.403Z,100221.22
2019-05-21T16:51:49.819Z,100222.53
2019-05-21T16:54:21.249Z,100213.70
2019-05-21T16:56:52.597Z,100216.80
2019-05-21T16:59:24.000Z,100217.72
2019-05-21T17:01:55.327Z,100213.30
2019-05-21T17:04:26.831Z,100218.19
2019-05-21T17:06:58.325Z,100221.30
2019-05-21T17:09:29.851Z,100229.73
2019-05-21T17:12:01.522Z,100236.41
2019-05-21T17:14:33.218Z,100232.86
2019-05-21T17:17:04.827Z,100237.27
2019-05-21T17:19:40.691Z,100242.61
2019-05-21T17:22:16.783Z,100250.56
2019-05-21T17:25:00.287Z,100251.02
2019-05-21T17:27:32.277Z,100241.25
2019-05-21T17:30:05.942Z,100243.92
2019-05-21T17:32:38.549Z,100253.66
2019-05-21T17:35:10.974Z,100255.87
2019-05-21T17:37:42.783Z,100251.90
2019-05-21T17:40:15.749Z,100249.69
2019-05-21T17:42:48.678Z,100244.37
2019-05-21T17:45:20.319Z,100252.80
2019-05-21T17:47:59.245Z,100247.92
2019-05-21T17:50:34.382Z,100250.58
2019-05-21T17:53:06.029Z,100251.45
2019-05-21T17:55:37.696Z,100255.43
2019-05-21T17:58:09.363Z,100262.09
2019-05-21T18:00:48.698Z,100262.06
2019-05-21T18:03:24.261Z,100260.76
2019-05-21T18:06:00.246Z,100266.92
2019-05-21T18:08:33.719Z,100270.48
2019-05-21T18:11:05.942Z,100276.67
2019-05-21T18:13:42.122Z,100278.88
2019-05-21T18:16:14.283Z,100289.95
2019-05-21T18:18:47.305Z,100286.87
2019-05-21T18:21:18.914Z,100293.51
2019-05-21T18:23:51.272Z,100296.59
2019-05-21T18:26:23.492Z,100298.34
2019-05-21T18:28:55.015Z,100301.89
2019-05-21T18:31:26.611Z,100305.89
2019-05-21T18:34:04.732Z,100312.08
2019-05-21T18:36:48.699Z,100312.08
2019-05-21T18:39:24.235Z,100317.81
2019-05-21T18:41:55.875Z,100320.04
2019-05-21T18:44:27.388Z,100321.80
2019-05-21T18:46:58.717Z,100331.98
2019-05-21T18:49:31.739Z,100329.77
2019-05-21T18:52:03.241Z,100334.64
2019-05-21T18:54:34.587Z,100345.25
2019-05-21T18:57:06.129Z,100341.28
2019-05-21T18:59:37.615Z,100342.63
2019-05-21T19:02:10.713Z,100343.95
2019-05-21T19:04:42.229Z,100348.36
2019-05-21T19:07:14.365Z,100352.78
2019-05-21T19:09:45.955Z,100348.81
2019-05-21T19:12:17.482Z,100354.99
2019-05-21T19:14:49.184Z,100361.63
2019-05-21T19:17:34.773Z,100368.29
2019-05-21T19:19:54.777Z,100366.50
2019-05-21T19:22:27.629Z,100374.48
2019-05-21T19:24:59.584Z,100375.34
2019-05-21T19:27:31.347Z,100378.45
2019-05-21T19:30:02.799Z,100384.20
2019-05-21T19:32:34.402Z,100389.07
2019-05-21T19:35:14.843Z,100389.95
2019-05-21T19:37:46.518Z,100395.28
2019-05-21T19:40:18.986Z,100389.54
2019-05-21T19:42:55.606Z,100399.70
2019-05-21T19:45:31.379Z,100400.13
2019-05-21T19:48:02.281Z,100404.14
2019-05-21T19:50:34.353Z,100410.31
2019-05-21T19:53:06.280Z,100417.85
2019-05-21T19:55:39.193Z,100411.20
2019-05-21T19:58:11.516Z,100419.16
2019-05-21T20:00:44.835Z,100424.48
2019-05-21T20:03:17.377Z,100421.39
2019-05-21T20:05:50.117Z,100428.03
2019-05-21T20:08:21.594Z,100430.69
2019-05-21T20:10:53.500Z,100435.97
2019-05-21T20:13:32.528Z,100439.09
2019-05-21T20:15:59.631Z,100441.30
2019-05-21T20:18:31.075Z,100442.62
2019-05-21T20:21:04.102Z,100445.73
2019-05-21T20:23:35.674Z,100448.83
2019-05-21T20:26:10.259Z,100455.45
2019-05-21T20:28:41.589Z,100459.91
2019-05-21T20:31:13.348Z,100457.69
2019-05-21T20:33:48.226Z,100462.11
2019-05-21T20:36:19.637Z,100462.53
2019-05-21T20:38:51.038Z,100467.40
2019-05-21T20:41:23.932Z,100463.86
2019-05-21T20:43:59.127Z,100461.67
2019-05-21T20:46:29.035Z,100463.41
2019-05-21T20:49:02.161Z,100465.62
2019-05-21T20:51:33.845Z,100468.73
2019-05-21T20:54:06.124Z,100466.07
2019-05-21T20:56:37.513Z,100464.75
2019-05-21T20:59:09.034Z,100464.75
2019-05-21T21:01:41.466Z,100469.62
2019-05-21T21:04:14.453Z,100473.16
2019-05-21T21:06:47.341Z,100474.04
2019-05-21T21:09:18.778Z,100470.94
2019-05-21T21:11:50.416Z,100466.52
2019-05-21T21:14:22.319Z,100469.62
2019-05-21T21:16:55.652Z,100468.73
2019-05-21T21:19:27.173Z,100466.97
2019-05-21T21:21:58.827Z,100468.29
2019-05-21T21:24:30.334Z,100467.41
2019-05-21T21:27:02.290Z,100466.52
2019-05-21T21:29:33.892Z,100467.84
2019-05-21T21:32:05.744Z,100466.08
2019-05-21T21:34:37.249Z,100469.17
2019-05-21T21:37:09.262Z,100468.73
2019-05-21T21:39:41.995Z,100470.06
2019-05-21T21:42:13.825Z,100470.06
2019-05-21T21:44:49.266Z,100475.34
2019-05-21T21:47:21.436Z,100471.39
2019-05-21T21:49:53.497Z,100477.14
2019-05-21T21:52:25.034Z,100478.44
2019-05-21T21:54:56.746Z,100479.77
2019-05-21T21:57:28.269Z,100481.97
2019-05-21T21:59:59.675Z,100476.66
2019-05-21T22:02:36.132Z,100476.22
2019-05-21T22:05:09.958Z,100479.76
2019-05-21T22:07:41.341Z,100479.31
2019-05-21T22:10:12.872Z,100479.76
2019-05-21T22:12:44.270Z,100486.84
2019-05-21T22:15:16.381Z,100485.06
2019-05-21T22:17:48.005Z,100487.72
2019-05-21T22:20:19.822Z,100485.52
2019-05-21T22:22:51.645Z,100483.30
2019-05-21T22:25:23.180Z,100483.73
2019-05-21T22:27:54.606Z,100485.06
2019-05-21T22:30:27.778Z,100480.64
2019-05-21T22:32:59.356Z,100488.16
2019-05-21T22:35:31.082Z,100478.88
2019-05-21T22:38:02.581Z,100477.54
2019-05-21T22:40:34.029Z,100483.73
2019-05-21T22:43:05.465Z,100485.50
2019-05-21T22:45:37.090Z,100482.41
2019-05-21T22:48:09.434Z,100487.72
2019-05-21T22:50:40.856Z,100489.92
2019-05-21T22:53:12.254Z,100484.62
2019-05-21T22:55:43.626Z,100479.75
2019-05-21T22:58:14.974Z,100483.30
2019-05-21T23:00:47.042Z,100488.61
2019-05-21T23:03:18.462Z,100479.75
2019-05-21T23:05:56.085Z,100482.85
2019-05-21T23:08:28.431Z,100484.62
2019-05-21T23:11:00.858Z,100480.19
2019-05-21T23:13:33.320Z,100479.74
2019-05-21T23:16:06.555Z,100470.02
2019-05-21T23:18:43.132Z,100472.67
2019-05-21T23:21:19.544Z,100477.52
2019-05-21T23:23:53.632Z,100476.20
2019-05-21T23:26:25.433Z,100476.20
2019-05-21T23:28:57.065Z,100472.66
2019-05-21T23:31:30.255Z,100471.34
2019-05-21T23:34:02.675Z,100466.48
2019-05-21T23:36:34.440Z,100471.78
2019-05-21T23:39:09.591Z,100468.69
2019-05-21T23:41:41.845Z,100467.80
2019-05-21T23:44:14.412Z,100470.01
2019-05-21T23:46:47.411Z,100474.87
2019-05-21T23:49:18.969Z,100476.19
2019-05-21T23:51:50.324Z,100474.86
2019-05-21T23:54:21.715Z,100472.67
2019-05-21T23:56:54.445Z,100469.12
2019-05-21T23:59:26.258Z,100473.10
